sensor_id;sensor_type;location;lat;lon;timestamp;temperature;humidity
62259;DHT22;48241;48.824;10.102;2023-02-28T00:00:26;-0.80;76.90
62259;DHT22;48241;48.824;10.102;2023-02-28T00:02:52;-0.70;76.90
62259;DHT22;48241;48.824;10.102;2023-02-28T00:05:21;-0.70;76.40
62259;DHT22;48241;48.824;10.102;2023-02-28T00:07:47;-0.60;76.70
62259;DHT22;48241;48.824;10.102;2023-02-28T00:10:16;-0.60;77.30
62259;DHT22;48241;48.824;10.102;2023-02-28T00:12:46;-0.50;76.60
62259;DHT22;48241;48.824;10.102;2023-02-28T00:15:12;-0.20;75.70
62259;DHT22;48241;48.824;10.102;2023-02-28T00:17:38;-0.10;75.00
62259;DHT22;48241;48.824;10.102;2023-02-28T00:20:04;-0.30;76.10
62259;DHT22;48241;48.824;10.102;2023-02-28T00:22:31;-0.30;75.90
62259;DHT22;48241;48.824;10.102;2023-02-28T00:24:57;-0.50;76.50
62259;DHT22;48241;48.824;10.102;2023-02-28T00:27:22;-0.50;76.90
62259;DHT22;48241;48.824;10.102;2023-02-28T00:29:48;-0.40;76.70
62259;DHT22;48241;48.824;10.102;2023-02-28T00:32:13;-0.50;77.10
62259;DHT22;48241;48.824;10.102;2023-02-28T00:34:39;-0.50;77.10
62259;DHT22;48241;48.824;10.102;2023-02-28T00:37:09;-0.20;76.70
62259;DHT22;48241;48.824;10.102;2023-02-28T00:39:37;0.00;75.80
62259;DHT22;48241;48.824;10.102;2023-02-28T00:42:04;0.10;75.40
62259;DHT22;48241;48.824;10.102;2023-02-28T00:44:30;0.20;76.10
62259;DHT22;48241;48.824;10.102;2023-02-28T00:46:57;0.20;74.80
62259;DHT22;48241;48.824;10.102;2023-02-28T00:49:23;-0.10;75.90
62259;DHT22;48241;48.824;10.102;2023-02-28T00:51:49;-0.20;77.10
62259;DHT22;48241;48.824;10.102;2023-02-28T00:54:15;-0.40;77.70
62259;DHT22;48241;48.824;10.102;2023-02-28T00:56:41;-0.70;79.30
62259;DHT22;48241;48.824;10.102;2023-02-28T00:59:06;-0.90;80.30
62259;DHT22;48241;48.824;10.102;2023-02-28T01:01:32;-1.00;80.80
62259;DHT22;48241;48.824;10.102;2023-02-28T01:03:58;-0.90;81.40
62259;DHT22;48241;48.824;10.102;2023-02-28T01:06:23;-1.10;81.80
62259;DHT22;48241;48.824;10.102;2023-02-28T01:08:49;-0.80;81.50
62259;DHT22;48241;48.824;10.102;2023-02-28T01:11:18;-0.80;80.80
62259;DHT22;48241;48.824;10.102;2023-02-28T01:13:45;-1.10;81.50
62259;DHT22;48241;48.824;10.102;2023-02-28T01:16:11;-1.00;82.30
62259;DHT22;48241;48.824;10.102;2023-02-28T01:18:38;-0.80;81.70
62259;DHT22;48241;48.824;10.102;2023-02-28T01:21:09;-0.80;81.20
62259;DHT22;48241;48.824;10.102;2023-02-28T01:23:35;-0.80;81.80
62259;DHT22;48241;48.824;10.102;2023-02-28T01:26:09;-0.90;81.60
62259;DHT22;48241;48.824;10.102;2023-02-28T01:28:35;-0.60;81.30
62259;DHT22;48241;48.824;10.102;2023-02-28T01:31:01;-1.00;82.50
62259;DHT22;48241;48.824;10.102;2023-02-28T01:33:26;-1.00;82.50
62259;DHT22;48241;48.824;10.102;2023-02-28T01:36:04;-0.90;82.40
62259;DHT22;48241;48.824;10.102;2023-02-28T01:38:30;-0.90;82.80
62259;DHT22;48241;48.824;10.102;2023-02-28T01:40:56;-1.00;82.70
62259;DHT22;48241;48.824;10.102;2023-02-28T01:43:23;-0.90;82.60
62259;DHT22;48241;48.824;10.102;2023-02-28T01:45:50;-0.70;82.40
62259;DHT22;48241;48.824;10.102;2023-02-28T01:48:16;-1.00;83.30
62259;DHT22;48241;48.824;10.102;2023-02-28T01:50:45;-1.00;84.30
62259;DHT22;48241;48.824;10.102;2023-02-28T01:53:15;-1.00;84.20
62259;DHT22;48241;48.824;10.102;2023-02-28T01:55:45;-0.90;83.80
62259;DHT22;48241;48.824;10.102;2023-02-28T01:58:12;-0.90;83.90
62259;DHT22;48241;48.824;10.102;2023-02-28T02:00:38;-0.80;83.70
62259;DHT22;48241;48.824;10.102;2023-02-28T02:03:08;-0.50;82.10
62259;DHT22;48241;48.824;10.102;2023-02-28T02:05:37;-0.70;82.70
62259;DHT22;48241;48.824;10.102;2023-02-28T02:08:06;-1.10;85.00
62259;DHT22;48241;48.824;10.102;2023-02-28T02:10:41;-1.00;84.40
62259;DHT22;48241;48.824;10.102;2023-02-28T02:18:37;-1.30;86.00
62259;DHT22;48241;48.824;10.102;2023-02-28T02:21:19;-1.30;86.70
62259;DHT22;48241;48.824;10.102;2023-02-28T02:37:15;-0.90;85.00
62259;DHT22;48241;48.824;10.102;2023-02-28T02:39:53;-1.00;85.40
62259;DHT22;48241;48.824;10.102;2023-02-28T02:42:44;-1.10;86.80
62259;DHT22;48241;48.824;10.102;2023-02-28T02:45:46;-1.00;86.40
62259;DHT22;48241;48.824;10.102;2023-02-28T02:48:17;-1.00;86.00
62259;DHT22;48241;48.824;10.102;2023-02-28T02:50:50;-1.00;87.10
62259;DHT22;48241;48.824;10.102;2023-02-28T02:53:19;-1.10;87.30
62259;DHT22;48241;48.824;10.102;2023-02-28T02:55:50;-1.10;87.10
62259;DHT22;48241;48.824;10.102;2023-02-28T02:58:22;-1.10;86.90
62259;DHT22;48241;48.824;10.102;2023-02-28T03:00:54;-1.10;87.30
62259;DHT22;48241;48.824;10.102;2023-02-28T03:03:21;-1.00;87.40
62259;DHT22;48241;48.824;10.102;2023-02-28T03:05:54;-1.10;87.30
62259;DHT22;48241;48.824;10.102;2023-02-28T03:08:20;-1.20;88.70
62259;DHT22;48241;48.824;10.102;2023-02-28T03:10:48;-1.10;89.00
62259;DHT22;48241;48.824;10.102;2023-02-28T03:16:32;-0.90;87.90
62259;DHT22;48241;48.824;10.102;2023-02-28T03:19:05;-1.10;87.90
62259;DHT22;48241;48.824;10.102;2023-02-28T03:21:48;-1.20;89.80
62259;DHT22;48241;48.824;10.102;2023-02-28T03:24:43;-1.30;90.00
62259;DHT22;48241;48.824;10.102;2023-02-28T03:27:36;-1.10;88.40
62259;DHT22;48241;48.824;10.102;2023-02-28T03:30:22;-1.50;90.00
62259;DHT22;48241;48.824;10.102;2023-02-28T03:32:58;-1.60;90.90
62259;DHT22;48241;48.824;10.102;2023-02-28T03:35:33;-1.60;90.40
62259;DHT22;48241;48.824;10.102;2023-02-28T03:38:12;-1.60;91.00
62259;DHT22;48241;48.824;10.102;2023-02-28T03:40:43;-1.20;90.30
62259;DHT22;48241;48.824;10.102;2023-02-28T03:43:14;-0.90;88.60
62259;DHT22;48241;48.824;10.102;2023-02-28T03:45:44;-0.90;87.30
62259;DHT22;48241;48.824;10.102;2023-02-28T03:48:32;-0.90;87.50
62259;DHT22;48241;48.824;10.102;2023-02-28T03:51:01;-1.20;89.10
62259;DHT22;48241;48.824;10.102;2023-02-28T03:53:37;-0.90;88.30
62259;DHT22;48241;48.824;10.102;2023-02-28T03:56:13;-1.10;89.10
62259;DHT22;48241;48.824;10.102;2023-02-28T03:59:12;-1.20;89.50
62259;DHT22;48241;48.824;10.102;2023-02-28T04:01:45;-1.20;89.10
62259;DHT22;48241;48.824;10.102;2023-02-28T04:04:12;-0.90;88.40
62259;DHT22;48241;48.824;10.102;2023-02-28T04:06:38;-0.90;87.30
62259;DHT22;48241;48.824;10.102;2023-02-28T04:09:06;-0.70;86.70
62259;DHT22;48241;48.824;10.102;2023-02-28T04:11:46;-0.70;85.90
62259;DHT22;48241;48.824;10.102;2023-02-28T04:14:12;-0.70;86.20
62259;DHT22;48241;48.824;10.102;2023-02-28T04:16:40;-1.00;87.20
62259;DHT22;48241;48.824;10.102;2023-02-28T04:19:08;-0.80;86.50
62259;DHT22;48241;48.824;10.102;2023-02-28T04:21:36;-0.70;86.20
62259;DHT22;48241;48.824;10.102;2023-02-28T04:24:03;-0.60;85.60
62259;DHT22;48241;48.824;10.102;2023-02-28T04:26:33;-1.30;88.70
62259;DHT22;48241;48.824;10.102;2023-02-28T04:29:00;-1.40;90.20
62259;DHT22;48241;48.824;10.102;2023-02-28T04:31:26;-1.10;89.60
62259;DHT22;48241;48.824;10.102;2023-02-28T04:33:51;-1.00;88.30
62259;DHT22;48241;48.824;10.102;2023-02-28T04:36:17;-0.90;87.30
62259;DHT22;48241;48.824;10.102;2023-02-28T04:38:44;-0.80;87.60
62259;DHT22;48241;48.824;10.102;2023-02-28T04:41:10;-0.60;86.20
62259;DHT22;48241;48.824;10.102;2023-02-28T04:43:35;-0.40;84.80
62259;DHT22;48241;48.824;10.102;2023-02-28T04:46:03;-0.50;84.70
62259;DHT22;48241;48.824;10.102;2023-02-28T04:48:31;-0.40;85.40
62259;DHT22;48241;48.824;10.102;2023-02-28T04:51:05;-0.30;85.10
62259;DHT22;48241;48.824;10.102;2023-02-28T04:53:31;0.00;83.20
62259;DHT22;48241;48.824;10.102;2023-02-28T04:55:57;-0.70;85.30
62259;DHT22;48241;48.824;10.102;2023-02-28T04:58:23;-0.70;86.30
62259;DHT22;48241;48.824;10.102;2023-02-28T05:00:52;-0.60;85.70
62259;DHT22;48241;48.824;10.102;2023-02-28T05:03:18;-0.70;84.90
62259;DHT22;48241;48.824;10.102;2023-02-28T05:05:46;-0.80;87.10
62259;DHT22;48241;48.824;10.102;2023-02-28T05:08:11;-1.10;87.80
62259;DHT22;48241;48.824;10.102;2023-02-28T05:10:37;-1.10;88.30
62259;DHT22;48241;48.824;10.102;2023-02-28T05:13:02;-1.20;88.70
62259;DHT22;48241;48.824;10.102;2023-02-28T05:15:28;-1.20;88.30
62259;DHT22;48241;48.824;10.102;2023-02-28T05:17:54;-1.10;88.60
62259;DHT22;48241;48.824;10.102;2023-02-28T05:20:19;-1.10;88.20
62259;DHT22;48241;48.824;10.102;2023-02-28T05:22:46;-1.30;88.50
62259;DHT22;48241;48.824;10.102;2023-02-28T05:25:15;-1.30;89.10
62259;DHT22;48241;48.824;10.102;2023-02-28T05:27:42;-1.20;88.30
62259;DHT22;48241;48.824;10.102;2023-02-28T05:30:08;-1.20;88.80
62259;DHT22;48241;48.824;10.102;2023-02-28T05:32:36;-1.30;89.30
62259;DHT22;48241;48.824;10.102;2023-02-28T05:35:02;-1.20;89.20
62259;DHT22;48241;48.824;10.102;2023-02-28T05:37:28;-0.90;87.90
62259;DHT22;48241;48.824;10.102;2023-02-28T05:39:53;-0.80;86.70
62259;DHT22;48241;48.824;10.102;2023-02-28T05:42:19;-1.00;87.40
62259;DHT22;48241;48.824;10.102;2023-02-28T05:44:44;-1.00;87.40
62259;DHT22;48241;48.824;10.102;2023-02-28T05:47:10;-0.90;86.70
62259;DHT22;48241;48.824;10.102;2023-02-28T05:49:37;-1.00;88.30
62259;DHT22;48241;48.824;10.102;2023-02-28T05:52:03;-1.20;88.20
62259;DHT22;48241;48.824;10.102;2023-02-28T05:54:29;-1.30;88.50
62259;DHT22;48241;48.824;10.102;2023-02-28T05:56:54;-1.40;89.70
62259;DHT22;48241;48.824;10.102;2023-02-28T05:59:20;-1.50;90.50
62259;DHT22;48241;48.824;10.102;2023-02-28T06:01:45;-1.20;89.30
62259;DHT22;48241;48.824;10.102;2023-02-28T06:04:14;-1.30;89.20
62259;DHT22;48241;48.824;10.102;2023-02-28T06:06:43;-1.30;89.30
62259;DHT22;48241;48.824;10.102;2023-02-28T06:09:09;-1.00;88.90
62259;DHT22;48241;48.824;10.102;2023-02-28T06:11:34;-1.00;87.30
62259;DHT22;48241;48.824;10.102;2023-02-28T06:14:01;-0.80;87.20
62259;DHT22;48241;48.824;10.102;2023-02-28T06:16:28;-0.80;86.60
62259;DHT22;48241;48.824;10.102;2023-02-28T06:18:53;-0.60;84.80
62259;DHT22;48241;48.824;10.102;2023-02-28T06:21:21;-0.50;84.70
62259;DHT22;48241;48.824;10.102;2023-02-28T06:23:47;-0.70;84.70
62259;DHT22;48241;48.824;10.102;2023-02-28T06:26:13;-0.90;85.60
62259;DHT22;48241;48.824;10.102;2023-02-28T06:28:39;-0.80;85.90
62259;DHT22;48241;48.824;10.102;2023-02-28T06:31:13;-1.10;86.90
62259;DHT22;48241;48.824;10.102;2023-02-28T06:33:40;-1.00;87.00
62259;DHT22;48241;48.824;10.102;2023-02-28T06:36:06;-1.30;88.00
62259;DHT22;48241;48.824;10.102;2023-02-28T06:38:33;-1.20;87.70
62259;DHT22;48241;48.824;10.102;2023-02-28T06:41:00;-1.20;87.80
62259;DHT22;48241;48.824;10.102;2023-02-28T06:43:28;-1.00;87.10
62259;DHT22;48241;48.824;10.102;2023-02-28T06:45:59;-1.30;87.80
62259;DHT22;48241;48.824;10.102;2023-02-28T06:48:26;-1.40;89.50
62259;DHT22;48241;48.824;10.102;2023-02-28T06:51:00;-1.40;89.40
62259;DHT22;48241;48.824;10.102;2023-02-28T06:53:26;-1.50;90.10
62259;DHT22;48241;48.824;10.102;2023-02-28T06:55:51;-1.40;90.00
62259;DHT22;48241;48.824;10.102;2023-02-28T06:58:17;-1.30;88.70
62259;DHT22;48241;48.824;10.102;2023-02-28T07:00:50;-1.40;89.60
62259;DHT22;48241;48.824;10.102;2023-02-28T07:03:15;-1.60;90.20
62259;DHT22;48241;48.824;10.102;2023-02-28T07:05:41;-1.80;90.50
62259;DHT22;48241;48.824;10.102;2023-02-28T07:08:07;-1.50;90.50
62259;DHT22;48241;48.824;10.102;2023-02-28T07:10:33;-1.50;90.10
62259;DHT22;48241;48.824;10.102;2023-02-28T07:13:00;-1.10;88.40
62259;DHT22;48241;48.824;10.102;2023-02-28T07:15:26;-0.90;86.90
62259;DHT22;48241;48.824;10.102;2023-02-28T07:17:51;-0.80;85.50
62259;DHT22;48241;48.824;10.102;2023-02-28T07:20:17;-0.70;86.00
62259;DHT22;48241;48.824;10.102;2023-02-28T07:22:42;-0.60;85.30
62259;DHT22;48241;48.824;10.102;2023-02-28T07:25:09;-0.80;85.60
62259;DHT22;48241;48.824;10.102;2023-02-28T07:27:34;-0.80;85.40
62259;DHT22;48241;48.824;10.102;2023-02-28T07:30:00;-0.60;85.00
62259;DHT22;48241;48.824;10.102;2023-02-28T07:32:27;-0.40;84.60
62259;DHT22;48241;48.824;10.102;2023-02-28T07:34:53;-0.30;83.70
62259;DHT22;48241;48.824;10.102;2023-02-28T07:37:19;-0.20;82.40
62259;DHT22;48241;48.824;10.102;2023-02-28T07:39:45;-0.20;82.20
62259;DHT22;48241;48.824;10.102;2023-02-28T07:42:10;-0.20;83.10
62259;DHT22;48241;48.824;10.102;2023-02-28T07:44:40;0.00;82.00
62259;DHT22;48241;48.824;10.102;2023-02-28T07:47:09;0.20;81.20
62259;DHT22;48241;48.824;10.102;2023-02-28T07:49:36;0.10;81.40
62259;DHT22;48241;48.824;10.102;2023-02-28T07:52:03;0.20;81.90
62259;DHT22;48241;48.824;10.102;2023-02-28T07:54:29;0.30;80.30
62259;DHT22;48241;48.824;10.102;2023-02-28T07:56:54;0.30;80.70
62259;DHT22;48241;48.824;10.102;2023-02-28T07:59:20;0.70;79.20
62259;DHT22;48241;48.824;10.102;2023-02-28T08:01:45;0.90;78.20
62259;DHT22;48241;48.824;10.102;2023-02-28T08:04:11;1.20;77.90
62259;DHT22;48241;48.824;10.102;2023-02-28T08:06:37;1.20;75.70
62259;DHT22;48241;48.824;10.102;2023-02-28T08:09:02;1.10;76.90
62259;DHT22;48241;48.824;10.102;2023-02-28T08:11:28;0.70;77.70
62259;DHT22;48241;48.824;10.102;2023-02-28T08:13:54;0.80;78.10
62259;DHT22;48241;48.824;10.102;2023-02-28T08:16:20;1.00;76.50
62259;DHT22;48241;48.824;10.102;2023-02-28T08:18:51;1.40;76.10
62259;DHT22;48241;48.824;10.102;2023-02-28T08:21:17;1.60;75.60
62259;DHT22;48241;48.824;10.102;2023-02-28T08:23:50;1.70;74.40
62259;DHT22;48241;48.824;10.102;2023-02-28T08:26:19;1.70;73.50
62259;DHT22;48241;48.824;10.102;2023-02-28T08:28:45;1.40;74.80
62259;DHT22;48241;48.824;10.102;2023-02-28T08:31:12;1.40;75.30
62259;DHT22;48241;48.824;10.102;2023-02-28T08:33:39;1.40;75.10
62259;DHT22;48241;48.824;10.102;2023-02-28T08:36:05;1.40;74.30
62259;DHT22;48241;48.824;10.102;2023-02-28T08:38:31;1.20;75.90
62259;DHT22;48241;48.824;10.102;2023-02-28T08:40:58;1.50;74.10
62259;DHT22;48241;48.824;10.102;2023-02-28T08:43:24;2.10;73.00
62259;DHT22;48241;48.824;10.102;2023-02-28T08:45:54;2.30;71.10
62259;DHT22;48241;48.824;10.102;2023-02-28T08:48:22;2.50;69.70
62259;DHT22;48241;48.824;10.102;2023-02-28T08:51:01;2.70;69.10
62259;DHT22;48241;48.824;10.102;2023-02-28T08:53:27;2.50;69.60
62259;DHT22;48241;48.824;10.102;2023-02-28T08:56:01;3.00;68.90
62259;DHT22;48241;48.824;10.102;2023-02-28T08:58:27;3.20;66.40
62259;DHT22;48241;48.824;10.102;2023-02-28T09:00:53;3.10;67.00
62259;DHT22;48241;48.824;10.102;2023-02-28T09:03:20;2.40;68.00
62259;DHT22;48241;48.824;10.102;2023-02-28T09:05:57;2.30;70.50
62259;DHT22;48241;48.824;10.102;2023-02-28T09:08:24;2.60;68.80
62259;DHT22;48241;48.824;10.102;2023-02-28T09:10:50;2.20;69.90
62259;DHT22;48241;48.824;10.102;2023-02-28T09:13:16;2.80;69.80
62259;DHT22;48241;48.824;10.102;2023-02-28T09:15:42;2.40;67.60
62259;DHT22;48241;48.824;10.102;2023-02-28T09:18:08;2.00;71.00
62259;DHT22;48241;48.824;10.102;2023-02-28T09:20:33;1.90;70.70
62259;DHT22;48241;48.824;10.102;2023-02-28T09:22:59;2.10;70.00
62259;DHT22;48241;48.824;10.102;2023-02-28T09:25:24;1.90;70.90
62259;DHT22;48241;48.824;10.102;2023-02-28T09:27:50;1.70;72.30
62259;DHT22;48241;48.824;10.102;2023-02-28T09:30:19;2.00;71.10
62259;DHT22;48241;48.824;10.102;2023-02-28T09:32:44;1.90;71.40
62259;DHT22;48241;48.824;10.102;2023-02-28T09:35:17;2.10;70.80
62259;DHT22;48241;48.824;10.102;2023-02-28T09:37:43;2.10;70.40
62259;DHT22;48241;48.824;10.102;2023-02-28T09:40:10;2.20;70.30
62259;DHT22;48241;48.824;10.102;2023-02-28T09:42:36;2.30;69.50
62259;DHT22;48241;48.824;10.102;2023-02-28T09:45:19;2.80;67.50
62259;DHT22;48241;48.824;10.102;2023-02-28T09:47:48;3.00;67.20
62259;DHT22;48241;48.824;10.102;2023-02-28T09:52:53;2.90;66.80
62259;DHT22;48241;48.824;10.102;2023-02-28T09:55:26;3.20;66.40
62259;DHT22;48241;48.824;10.102;2023-02-28T09:58:00;3.40;65.40
62259;DHT22;48241;48.824;10.102;2023-02-28T10:00:33;2.70;67.50
62259;DHT22;48241;48.824;10.102;2023-02-28T10:08:43;2.50;69.00
62259;DHT22;48241;48.824;10.102;2023-02-28T10:11:14;2.90;68.80
62259;DHT22;48241;48.824;10.102;2023-02-28T10:16:50;3.40;66.00
62259;DHT22;48241;48.824;10.102;2023-02-28T10:24:50;4.20;63.30
62259;DHT22;48241;48.824;10.102;2023-02-28T10:27:22;3.50;64.60
62259;DHT22;48241;48.824;10.102;2023-02-28T10:29:53;4.00;65.20
62259;DHT22;48241;48.824;10.102;2023-02-28T10:32:40;3.90;63.50
62259;DHT22;48241;48.824;10.102;2023-02-28T10:37:37;3.10;64.90
62259;DHT22;48241;48.824;10.102;2023-02-28T10:40:05;2.80;65.40
62259;DHT22;48241;48.824;10.102;2023-02-28T10:42:31;2.30;67.20
62259;DHT22;48241;48.824;10.102;2023-02-28T10:47:55;2.10;69.20
62259;DHT22;48241;48.824;10.102;2023-02-28T10:53:07;2.20;68.30
62259;DHT22;48241;48.824;10.102;2023-02-28T10:55:33;2.10;67.60
62259;DHT22;48241;48.824;10.102;2023-02-28T10:57:59;2.10;68.40
62259;DHT22;48241;48.824;10.102;2023-02-28T11:00:25;2.30;67.90
62259;DHT22;48241;48.824;10.102;2023-02-28T11:02:56;2.70;66.60
62259;DHT22;48241;48.824;10.102;2023-02-28T11:05:33;2.50;67.30
62259;DHT22;48241;48.824;10.102;2023-02-28T11:08:10;2.70;66.70
62259;DHT22;48241;48.824;10.102;2023-02-28T11:10:38;3.10;65.90
62259;DHT22;48241;48.824;10.102;2023-02-28T11:13:04;3.10;65.20
62259;DHT22;48241;48.824;10.102;2023-02-28T11:15:32;3.20;64.80
62259;DHT22;48241;48.824;10.102;2023-02-28T11:18:21;3.50;64.60
62259;DHT22;48241;48.824;10.102;2023-02-28T11:20:50;3.90;63.60
62259;DHT22;48241;48.824;10.102;2023-02-28T11:23:17;4.00;62.60
62259;DHT22;48241;48.824;10.102;2023-02-28T11:25:51;4.20;61.20
62259;DHT22;48241;48.824;10.102;2023-02-28T11:28:29;3.20;63.20
62259;DHT22;48241;48.824;10.102;2023-02-28T11:33:51;2.80;66.30
62259;DHT22;48241;48.824;10.102;2023-02-28T11:36:29;2.70;66.80
62259;DHT22;48241;48.824;10.102;2023-02-28T11:39:15;2.70;66.20
62259;DHT22;48241;48.824;10.102;2023-02-28T11:47:48;3.00;65.10
62259;DHT22;48241;48.824;10.102;2023-02-28T11:55:45;3.00;64.10
62259;DHT22;48241;48.824;10.102;2023-02-28T12:03:58;3.80;63.40
62259;DHT22;48241;48.824;10.102;2023-02-28T12:09:46;4.10;61.00
62259;DHT22;48241;48.824;10.102;2023-02-28T12:24:15;4.30;61.10
62259;DHT22;48241;48.824;10.102;2023-02-28T12:26:44;4.30;61.50
62259;DHT22;48241;48.824;10.102;2023-02-28T12:30:00;4.20;61.80
62259;DHT22;48241;48.824;10.102;2023-02-28T12:32:25;4.10;61.10
62259;DHT22;48241;48.824;10.102;2023-02-28T12:35:10;3.50;62.80
62259;DHT22;48241;48.824;10.102;2023-02-28T12:37:57;3.70;63.30
62259;DHT22;48241;48.824;10.102;2023-02-28T12:40:41;3.70;62.50
62259;DHT22;48241;48.824;10.102;2023-02-28T12:43:08;3.70;63.40
62259;DHT22;48241;48.824;10.102;2023-02-28T12:45:51;4.10;62.40
62259;DHT22;48241;48.824;10.102;2023-02-28T12:48:34;4.00;60.90
62259;DHT22;48241;48.824;10.102;2023-02-28T12:51:03;4.20;61.70
62259;DHT22;48241;48.824;10.102;2023-02-28T12:53:31;4.40;61.10
62259;DHT22;48241;48.824;10.102;2023-02-28T12:56:22;4.50;59.90
62259;DHT22;48241;48.824;10.102;2023-02-28T12:58:59;4.30;61.10
62259;DHT22;48241;48.824;10.102;2023-02-28T13:04:45;4.70;60.20
62259;DHT22;48241;48.824;10.102;2023-02-28T13:07:45;5.00;59.70
62259;DHT22;48241;48.824;10.102;2023-02-28T13:10:15;4.90;59.60
62259;DHT22;48241;48.824;10.102;2023-02-28T13:13:03;4.70;60.00
62259;DHT22;48241;48.824;10.102;2023-02-28T13:15:32;4.60;61.30
62259;DHT22;48241;48.824;10.102;2023-02-28T13:18:03;4.80;60.30
62259;DHT22;48241;48.824;10.102;2023-02-28T13:20:36;4.90;59.90
62259;DHT22;48241;48.824;10.102;2023-02-28T13:23:02;4.90;60.50
62259;DHT22;48241;48.824;10.102;2023-02-28T13:28:00;4.40;61.80
62259;DHT22;48241;48.824;10.102;2023-02-28T13:44:20;5.20;60.10
62259;DHT22;48241;48.824;10.102;2023-02-28T13:51:53;5.40;59.80
62259;DHT22;48241;48.824;10.102;2023-02-28T14:00:00;5.20;60.00
62259;DHT22;48241;48.824;10.102;2023-02-28T14:05:18;5.00;60.40
62259;DHT22;48241;48.824;10.102;2023-02-28T14:07:48;5.00;60.50
62259;DHT22;48241;48.824;10.102;2023-02-28T14:10:27;4.90;60.80
62259;DHT22;48241;48.824;10.102;2023-02-28T14:20:55;5.20;60.00
62259;DHT22;48241;48.824;10.102;2023-02-28T14:32:28;5.00;61.30
62259;DHT22;48241;48.824;10.102;2023-02-28T14:37:39;5.20;59.70
62259;DHT22;48241;48.824;10.102;2023-02-28T14:40:17;4.90;59.90
62259;DHT22;48241;48.824;10.102;2023-02-28T14:42:48;4.90;60.50
62259;DHT22;48241;48.824;10.102;2023-02-28T14:45:20;4.60;61.50
62259;DHT22;48241;48.824;10.102;2023-02-28T14:47:47;4.90;61.30
62259;DHT22;48241;48.824;10.102;2023-02-28T14:50:20;5.10;60.30
62259;DHT22;48241;48.824;10.102;2023-02-28T14:52:46;5.00;60.60
62259;DHT22;48241;48.824;10.102;2023-02-28T14:55:18;4.70;60.70
62259;DHT22;48241;48.824;10.102;2023-02-28T14:57:58;4.90;60.90
62259;DHT22;48241;48.824;10.102;2023-02-28T15:00:27;4.90;60.80
62259;DHT22;48241;48.824;10.102;2023-02-28T15:02:55;4.90;60.80
62259;DHT22;48241;48.824;10.102;2023-02-28T15:08:14;5.00;61.00
62259;DHT22;48241;48.824;10.102;2023-02-28T15:13:17;4.90;61.30
62259;DHT22;48241;48.824;10.102;2023-02-28T15:16:02;4.40;62.80
62259;DHT22;48241;48.824;10.102;2023-02-28T15:18:50;4.40;63.20
62259;DHT22;48241;48.824;10.102;2023-02-28T15:21:35;4.50;63.00
62259;DHT22;48241;48.824;10.102;2023-02-28T15:24:17;4.40;63.00
62259;DHT22;48241;48.824;10.102;2023-02-28T15:27:02;4.60;62.60
62259;DHT22;48241;48.824;10.102;2023-02-28T15:29:37;4.40;62.90
62259;DHT22;48241;48.824;10.102;2023-02-28T15:32:35;4.40;62.60
62259;DHT22;48241;48.824;10.102;2023-02-28T15:35:25;4.30;63.20
62259;DHT22;48241;48.824;10.102;2023-02-28T15:40:38;4.10;64.20
62259;DHT22;48241;48.824;10.102;2023-02-28T15:43:18;4.20;64.00
62259;DHT22;48241;48.824;10.102;2023-02-28T15:48:28;4.00;64.40
62259;DHT22;48241;48.824;10.102;2023-02-28T15:53:33;4.30;63.90
62259;DHT22;48241;48.824;10.102;2023-02-28T15:56:15;4.20;63.50
62259;DHT22;48241;48.824;10.102;2023-02-28T15:58:46;4.10;63.90
62259;DHT22;48241;48.824;10.102;2023-02-28T16:01:20;4.20;63.60
62259;DHT22;48241;48.824;10.102;2023-02-28T16:03:50;4.10;63.50
62259;DHT22;48241;48.824;10.102;2023-02-28T16:08:48;4.30;62.80
62259;DHT22;48241;48.824;10.102;2023-02-28T16:11:17;4.20;63.30
62259;DHT22;48241;48.824;10.102;2023-02-28T16:13:43;4.30;63.70
62259;DHT22;48241;48.824;10.102;2023-02-28T16:16:18;4.30;63.30
62259;DHT22;48241;48.824;10.102;2023-02-28T16:18:45;4.40;62.60
62259;DHT22;48241;48.824;10.102;2023-02-28T16:21:10;4.20;63.60
62259;DHT22;48241;48.824;10.102;2023-02-28T16:23:37;3.90;64.90
62259;DHT22;48241;48.824;10.102;2023-02-28T16:26:04;4.00;64.60
62259;DHT22;48241;48.824;10.102;2023-02-28T16:28:35;4.00;64.70
62259;DHT22;48241;48.824;10.102;2023-02-28T16:31:04;3.80;64.80
62259;DHT22;48241;48.824;10.102;2023-02-28T16:33:32;4.00;65.30
62259;DHT22;48241;48.824;10.102;2023-02-28T16:35:58;4.00;65.30
62259;DHT22;48241;48.824;10.102;2023-02-28T16:38:24;3.80;65.50
62259;DHT22;48241;48.824;10.102;2023-02-28T16:40:51;3.60;66.60
62259;DHT22;48241;48.824;10.102;2023-02-28T16:43:19;3.60;66.20
62259;DHT22;48241;48.824;10.102;2023-02-28T16:45:46;3.60;66.40
62259;DHT22;48241;48.824;10.102;2023-02-28T16:48:14;3.50;66.80
62259;DHT22;48241;48.824;10.102;2023-02-28T16:50:42;3.40;67.60
62259;DHT22;48241;48.824;10.102;2023-02-28T16:53:10;3.20;68.30
62259;DHT22;48241;48.824;10.102;2023-02-28T16:55:39;3.00;69.20
62259;DHT22;48241;48.824;10.102;2023-02-28T16:58:14;3.20;68.40
62259;DHT22;48241;48.824;10.102;2023-02-28T17:00:40;3.30;68.80
62259;DHT22;48241;48.824;10.102;2023-02-28T17:03:23;3.10;68.90
62259;DHT22;48241;48.824;10.102;2023-02-28T17:05:53;3.10;69.10
62259;DHT22;48241;48.824;10.102;2023-02-28T17:08:18;3.10;69.40
62259;DHT22;48241;48.824;10.102;2023-02-28T17:10:44;3.00;69.60
62259;DHT22;48241;48.824;10.102;2023-02-28T17:13:10;2.90;70.20
62259;DHT22;48241;48.824;10.102;2023-02-28T17:15:37;2.80;70.50
62259;DHT22;48241;48.824;10.102;2023-02-28T17:18:03;2.80;71.00
62259;DHT22;48241;48.824;10.102;2023-02-28T17:20:29;2.80;71.10
62259;DHT22;48241;48.824;10.102;2023-02-28T17:22:56;2.80;70.80
62259;DHT22;48241;48.824;10.102;2023-02-28T17:25:23;2.60;71.30
62259;DHT22;48241;48.824;10.102;2023-02-28T17:27:49;2.50;71.90
62259;DHT22;48241;48.824;10.102;2023-02-28T17:30:23;2.50;71.80
62259;DHT22;48241;48.824;10.102;2023-02-28T17:32:48;2.60;72.00
62259;DHT22;48241;48.824;10.102;2023-02-28T17:35:15;2.60;72.00
62259;DHT22;48241;48.824;10.102;2023-02-28T17:37:43;2.60;72.30
62259;DHT22;48241;48.824;10.102;2023-02-28T17:40:22;2.50;71.90
62259;DHT22;48241;48.824;10.102;2023-02-28T17:42:48;2.50;72.20
62259;DHT22;48241;48.824;10.102;2023-02-28T17:45:15;2.40;73.00
62259;DHT22;48241;48.824;10.102;2023-02-28T17:47:42;2.40;73.50
62259;DHT22;48241;48.824;10.102;2023-02-28T17:50:15;2.50;72.80
62259;DHT22;48241;48.824;10.102;2023-02-28T17:52:43;2.30;73.50
62259;DHT22;48241;48.824;10.102;2023-02-28T17:55:09;2.20;73.50
62259;DHT22;48241;48.824;10.102;2023-02-28T17:57:35;2.20;74.20
62259;DHT22;48241;48.824;10.102;2023-02-28T18:00:00;2.10;74.80
62259;DHT22;48241;48.824;10.102;2023-02-28T18:02:30;2.10;74.30
62259;DHT22;48241;48.824;10.102;2023-02-28T18:04:56;2.10;74.90
62259;DHT22;48241;48.824;10.102;2023-02-28T18:07:23;1.90;74.90
62259;DHT22;48241;48.824;10.102;2023-02-28T18:09:49;2.10;74.90
62259;DHT22;48241;48.824;10.102;2023-02-28T18:12:14;2.00;75.70